SHU5657 UHMM-UHMP
Flight info
| Callsign | SHU5657 |
|---|---|
| Flight time | 2h 0m |
| Altitude | 39000 |
| Route | TITAL5D TITAL T454 MAKUB MAKUB1K |
| Aircraft | A319/M-SDE3FGHIRWY/LB1 |
Departure
| Time | 2026-04-15 09:42 |
|---|---|
| Airport | Sokol Airport (UHMM) |
Arrival
| Time | 2026-04-15 11:43 |
|---|---|
| Airport | Pevek Airport (UHMP) |
| Time | Latitude | Longitude | Altitude | Speed | Heading |
|---|---|---|---|---|---|
| 2026-04-15 08:36 | 59.91347 | 150.72526 | 583 ft | 0 kts | 183° |
| 2026-04-15 09:28 | 59.91328 | 150.72518 | 583 ft | 4 kts | 193° |
| 2026-04-15 09:28 | 59.91306 | 150.72521 | 583 ft | 4 kts | 152° |
| 2026-04-15 09:28 | 59.91299 | 150.72564 | 583 ft | 3 kts | 95° |
| 2026-04-15 09:29 | 59.91299 | 150.72551 | 583 ft | 4 kts | 93° |
| 2026-04-15 09:29 | 59.91300 | 150.72497 | 582 ft | 4 kts | 92° |
| 2026-04-15 09:29 | 59.91301 | 150.72480 | 582 ft | 0 kts | 92° |
| 2026-04-15 09:34 | 59.91300 | 150.72481 | 582 ft | 1 kts | 92° |
| 2026-04-15 09:34 | 59.91300 | 150.72505 | 582 ft | 3 kts | 92° |
| 2026-04-15 09:34 | 59.91299 | 150.72558 | 583 ft | 5 kts | 92° |
| 2026-04-15 09:35 | 59.91297 | 150.72639 | 583 ft | 7 kts | 93° |
| 2026-04-15 09:35 | 59.91260 | 150.72686 | 583 ft | 8 kts | 184° |
| 2026-04-15 09:35 | 59.91210 | 150.72679 | 583 ft | 3 kts | 184° |
| 2026-04-15 09:35 | 59.91204 | 150.72678 | 583 ft | 0 kts | 184° |
| 2026-04-15 09:36 | 59.91200 | 150.72677 | 583 ft | 2 kts | 184° |
| 2026-04-15 09:36 | 59.91172 | 150.72673 | 583 ft | 6 kts | 184° |
| 2026-04-15 09:37 | 59.91125 | 150.72667 | 584 ft | 8 kts | 184° |
| 2026-04-15 09:37 | 59.91082 | 150.72585 | 584 ft | 11 kts | 262° |
| 2026-04-15 09:37 | 59.91087 | 150.72402 | 580 ft | 16 kts | 272° |
| 2026-04-15 09:37 | 59.91094 | 150.72144 | 579 ft | 20 kts | 273° |
| 2026-04-15 09:38 | 59.91102 | 150.71863 | 579 ft | 21 kts | 274° |
| 2026-04-15 09:38 | 59.91110 | 150.71569 | 579 ft | 21 kts | 273° |
| 2026-04-15 09:38 | 59.91118 | 150.71273 | 579 ft | 22 kts | 273° |
| 2026-04-15 09:38 | 59.91126 | 150.70963 | 580 ft | 23 kts | 273° |
| 2026-04-15 09:39 | 59.91135 | 150.70624 | 573 ft | 26 kts | 273° |
| 2026-04-15 09:39 | 59.91145 | 150.70257 | 572 ft | 27 kts | 273° |
| 2026-04-15 09:39 | 59.91156 | 150.69878 | 571 ft | 27 kts | 273° |
| 2026-04-15 09:39 | 59.91166 | 150.69501 | 571 ft | 27 kts | 273° |
| 2026-04-15 09:40 | 59.91175 | 150.69205 | 573 ft | 12 kts | 276° |
| 2026-04-15 09:40 | 59.91220 | 150.69081 | 569 ft | 10 kts | 320° |
| 2026-04-15 09:40 | 59.91218 | 150.68992 | 567 ft | 8 kts | 220° |
| 2026-04-15 09:40 | 59.91178 | 150.69004 | 573 ft | 7 kts | 104° |
| 2026-04-15 09:41 | 59.91178 | 150.69021 | 575 ft | 0 kts | 91° |
| 2026-04-15 09:41 | 59.91175 | 150.69130 | 568 ft | 37 kts | 92° |
| 2026-04-15 09:41 | 59.91149 | 150.70170 | 570 ft | 110 kts | 93° |
| 2026-04-15 09:42 | 59.91098 | 150.72138 | 624 ft | 163 kts | 92° |
| 2026-04-15 09:42 | 59.91045 | 150.74317 | 1331 ft | 158 kts | 91° |
| 2026-04-15 09:42 | 59.91003 | 150.76502 | 2117 ft | 157 kts | 91° |
| 2026-04-15 09:42 | 59.90944 | 150.78679 | 2894 ft | 158 kts | 91° |
| 2026-04-15 09:43 | 59.90879 | 150.80890 | 3629 ft | 158 kts | 91° |
| 2026-04-15 09:43 | 59.90811 | 150.83180 | 4105 ft | 176 kts | 91° |
| 2026-04-15 09:43 | 59.90747 | 150.85724 | 4509 ft | 197 kts | 91° |
| 2026-04-15 09:43 | 59.90680 | 150.88658 | 4837 ft | 227 kts | 91° |
| 2026-04-15 09:44 | 59.90589 | 150.91974 | 5403 ft | 249 kts | 92° |
| 2026-04-15 09:44 | 59.90479 | 150.95467 | 6351 ft | 256 kts | 92° |
| 2026-04-15 09:44 | 59.90365 | 150.99014 | 7389 ft | 257 kts | 92° |
| 2026-04-15 09:44 | 59.90248 | 151.02580 | 8459 ft | 258 kts | 91° |
| 2026-04-15 09:45 | 59.90147 | 151.06163 | 9502 ft | 260 kts | 91° |
| 2026-04-15 09:45 | 59.90050 | 151.09800 | 10366 ft | 268 kts | 91° |
| 2026-04-15 09:45 | 59.89930 | 151.13632 | 10919 ft | 285 kts | 92° |
| 2026-04-15 09:45 | 59.89784 | 151.17670 | 11529 ft | 299 kts | 93° |
| 2026-04-15 09:46 | 59.89613 | 151.21877 | 12190 ft | 310 kts | 93° |
| 2026-04-15 09:46 | 59.89469 | 151.26257 | 12815 ft | 321 kts | 92° |
| 2026-04-15 09:46 | 59.89350 | 151.30713 | 13678 ft | 324 kts | 92° |
| 2026-04-15 09:46 | 59.89236 | 151.35219 | 14470 ft | 326 kts | 92° |
| 2026-04-15 09:47 | 59.89325 | 151.39701 | 15168 ft | 330 kts | 78° |
| 2026-04-15 09:47 | 59.90183 | 151.43958 | 15894 ft | 335 kts | 59° |
| 2026-04-15 09:47 | 59.91755 | 151.47410 | 16658 ft | 341 kts | 40° |
| 2026-04-15 09:47 | 59.93869 | 151.49636 | 17401 ft | 351 kts | 21° |
| 2026-04-15 09:48 | 59.96321 | 151.50317 | 18122 ft | 360 kts | 7° |
| 2026-04-15 09:48 | 59.98828 | 151.50595 | 18778 ft | 362 kts | 8° |
| 2026-04-15 09:48 | 60.01355 | 151.50995 | 19402 ft | 365 kts | 9° |
| 2026-04-15 09:48 | 60.03904 | 151.51474 | 20000 ft | 369 kts | 10° |
| 2026-04-15 09:49 | 60.06473 | 151.51985 | 20622 ft | 372 kts | 11° |
| 2026-04-15 09:49 | 60.09061 | 151.52496 | 21241 ft | 375 kts | 11° |
| 2026-04-15 09:49 | 60.11675 | 151.53000 | 21858 ft | 379 kts | 11° |
| 2026-04-15 09:49 | 60.14311 | 151.53491 | 22444 ft | 383 kts | 11° |
| 2026-04-15 09:50 | 60.16978 | 151.53973 | 23042 ft | 386 kts | 11° |
| 2026-04-15 09:50 | 60.19628 | 151.54446 | 23616 ft | 388 kts | 11° |
| 2026-04-15 09:50 | 60.22327 | 151.54925 | 24094 ft | 391 kts | 11° |
| 2026-04-15 09:50 | 60.25056 | 151.55404 | 24574 ft | 393 kts | 10° |
| 2026-04-15 09:51 | 60.27794 | 151.55883 | 25059 ft | 396 kts | 10° |
| 2026-04-15 09:51 | 60.30545 | 151.56365 | 25528 ft | 398 kts | 10° |
| 2026-04-15 09:51 | 60.33316 | 151.56862 | 25993 ft | 400 kts | 11° |
| 2026-04-15 09:51 | 60.36031 | 151.57962 | 26435 ft | 397 kts | 21° |
| 2026-04-15 09:52 | 60.38594 | 151.59994 | 26845 ft | 394 kts | 30° |
| 2026-04-15 09:52 | 60.40936 | 151.62861 | 27261 ft | 394 kts | 39° |
| 2026-04-15 09:52 | 60.43020 | 151.66450 | 27674 ft | 395 kts | 45° |
| 2026-04-15 09:52 | 60.45052 | 151.70228 | 28096 ft | 398 kts | 45° |
| 2026-04-15 09:53 | 60.47098 | 151.74036 | 28499 ft | 401 kts | 45° |
| 2026-04-15 09:53 | 60.49128 | 151.77817 | 28904 ft | 403 kts | 45° |
| 2026-04-15 09:53 | 60.51202 | 151.81677 | 29317 ft | 406 kts | 45° |
| 2026-04-15 09:53 | 60.53292 | 151.85571 | 29708 ft | 409 kts | 45° |
| 2026-04-15 09:54 | 60.55387 | 151.89486 | 30072 ft | 411 kts | 45° |
| 2026-04-15 09:54 | 60.57500 | 151.93448 | 30361 ft | 414 kts | 45° |
| 2026-04-15 09:54 | 60.59630 | 151.97456 | 30640 ft | 417 kts | 45° |
| 2026-04-15 09:54 | 60.61771 | 152.01491 | 30911 ft | 421 kts | 45° |
| 2026-04-15 09:55 | 60.63926 | 152.05553 | 31178 ft | 424 kts | 44° |
| 2026-04-15 09:55 | 60.66094 | 152.09645 | 31451 ft | 426 kts | 44° |
| 2026-04-15 09:55 | 60.68272 | 152.13766 | 31813 ft | 426 kts | 44° |
| 2026-04-15 09:55 | 60.70445 | 152.17887 | 32163 ft | 427 kts | 44° |
| 2026-04-15 09:56 | 60.72600 | 152.21979 | 32508 ft | 428 kts | 44° |
| 2026-04-15 09:56 | 60.74782 | 152.26135 | 32855 ft | 429 kts | 44° |
| 2026-04-15 09:56 | 60.79140 | 152.34490 | 33519 ft | 430 kts | 45° |
| 2026-04-15 09:57 | 60.81329 | 152.38698 | 33875 ft | 431 kts | 44° |
| 2026-04-15 09:57 | 60.83522 | 152.42890 | 34174 ft | 432 kts | 44° |
| 2026-04-15 09:57 | 60.85733 | 152.47076 | 34448 ft | 433 kts | 44° |
| 2026-04-15 09:57 | 60.87953 | 152.51267 | 34709 ft | 434 kts | 44° |
| 2026-04-15 09:58 | 60.90180 | 152.55471 | 34969 ft | 435 kts | 44° |
| 2026-04-15 09:58 | 60.92404 | 152.59687 | 35216 ft | 435 kts | 44° |
| 2026-04-15 09:58 | 60.94629 | 152.63927 | 35456 ft | 436 kts | 44° |
| 2026-04-15 09:58 | 60.96822 | 152.68118 | 35685 ft | 437 kts | 44° |
| 2026-04-15 09:59 | 60.99052 | 152.72389 | 35893 ft | 438 kts | 44° |
| 2026-04-15 09:59 | 61.01282 | 152.76671 | 36118 ft | 439 kts | 44° |
| 2026-04-15 09:59 | 61.03518 | 152.80972 | 36348 ft | 439 kts | 44° |
| 2026-04-15 09:59 | 61.05749 | 152.85268 | 36570 ft | 440 kts | 44° |
| 2026-04-15 10:00 | 61.07987 | 152.89595 | 36798 ft | 440 kts | 44° |
| 2026-04-15 10:00 | 61.10219 | 152.93927 | 37009 ft | 441 kts | 44° |
| 2026-04-15 10:00 | 61.12453 | 152.98269 | 37213 ft | 441 kts | 44° |
| 2026-04-15 10:00 | 61.14693 | 153.02631 | 37416 ft | 442 kts | 44° |
| 2026-04-15 10:01 | 61.16935 | 153.07007 | 37603 ft | 443 kts | 44° |
| 2026-04-15 10:01 | 61.19174 | 153.11383 | 37796 ft | 443 kts | 44° |
| 2026-04-15 10:01 | 61.21421 | 153.15775 | 37973 ft | 444 kts | 44° |
| 2026-04-15 10:01 | 61.23672 | 153.20184 | 38155 ft | 444 kts | 44° |
| 2026-04-15 10:02 | 61.25922 | 153.24598 | 38314 ft | 445 kts | 44° |
| 2026-04-15 10:02 | 61.28171 | 153.29024 | 38474 ft | 445 kts | 44° |
| 2026-04-15 10:02 | 61.30422 | 153.33463 | 38631 ft | 445 kts | 44° |
| 2026-04-15 10:02 | 61.32673 | 153.37903 | 38743 ft | 445 kts | 45° |
| 2026-04-15 10:03 | 61.34919 | 153.42341 | 38875 ft | 445 kts | 45° |
| 2026-04-15 10:03 | 61.39380 | 153.51200 | 39009 ft | 447 kts | 44° |
| 2026-04-15 10:04 | 61.43899 | 153.60211 | 39011 ft | 449 kts | 45° |
| 2026-04-15 10:04 | 61.48401 | 153.69235 | 39011 ft | 448 kts | 45° |
| 2026-04-15 10:05 | 61.52134 | 153.76755 | 38994 ft | 447 kts | 45° |
| 2026-04-15 10:05 | 61.56606 | 153.85784 | 39005 ft | 446 kts | 44° |
| 2026-04-15 10:06 | 61.61082 | 153.94833 | 39007 ft | 447 kts | 45° |
| 2026-04-15 10:06 | 61.65558 | 154.03931 | 39005 ft | 447 kts | 45° |
| 2026-04-15 10:07 | 61.70025 | 154.13063 | 39012 ft | 448 kts | 45° |
| 2026-04-15 10:07 | 61.74492 | 154.22250 | 39015 ft | 449 kts | 45° |
| 2026-04-15 10:08 | 61.78972 | 154.31487 | 39015 ft | 449 kts | 45° |
| 2026-04-15 10:08 | 61.83446 | 154.40729 | 39016 ft | 450 kts | 45° |
| 2026-04-15 10:09 | 61.87912 | 154.50014 | 39017 ft | 450 kts | 45° |
| 2026-04-15 10:09 | 61.92345 | 154.59288 | 39029 ft | 450 kts | 45° |
| 2026-04-15 10:10 | 61.96805 | 154.68646 | 39029 ft | 451 kts | 45° |
| 2026-04-15 10:10 | 62.01263 | 154.78024 | 39029 ft | 450 kts | 45° |
| 2026-04-15 10:11 | 62.05713 | 154.87438 | 39026 ft | 451 kts | 45° |
| 2026-04-15 10:11 | 62.10163 | 154.96892 | 39024 ft | 451 kts | 45° |
| 2026-04-15 10:12 | 62.14611 | 155.06376 | 39024 ft | 452 kts | 45° |
| 2026-04-15 10:12 | 62.19046 | 155.15896 | 39026 ft | 452 kts | 45° |
| 2026-04-15 10:13 | 62.23481 | 155.25457 | 39035 ft | 452 kts | 45° |
| 2026-04-15 10:13 | 62.27915 | 155.35044 | 39033 ft | 453 kts | 46° |
| 2026-04-15 10:14 | 62.32347 | 155.44674 | 39035 ft | 453 kts | 46° |
| 2026-04-15 10:14 | 62.36776 | 155.54327 | 39036 ft | 453 kts | 46° |
| 2026-04-15 10:15 | 62.41190 | 155.64014 | 39038 ft | 453 kts | 46° |
| 2026-04-15 10:15 | 62.45603 | 155.73655 | 39038 ft | 453 kts | 42° |
| 2026-04-15 10:16 | 62.50672 | 155.81768 | 39039 ft | 454 kts | 36° |
| 2026-04-15 10:16 | 62.55839 | 155.89651 | 39044 ft | 453 kts | 36° |
| 2026-04-15 10:17 | 62.60990 | 155.97570 | 39036 ft | 453 kts | 36° |
| 2026-04-15 10:17 | 62.66118 | 156.05510 | 39041 ft | 453 kts | 36° |
| 2026-04-15 10:18 | 62.71244 | 156.13468 | 39045 ft | 452 kts | 36° |
| 2026-04-15 10:18 | 62.76369 | 156.21458 | 39045 ft | 452 kts | 36° |
| 2026-04-15 10:19 | 62.81476 | 156.29462 | 39044 ft | 452 kts | 36° |
| 2026-04-15 10:19 | 62.86554 | 156.37448 | 39044 ft | 452 kts | 36° |
| 2026-04-15 10:20 | 62.91661 | 156.45513 | 39052 ft | 452 kts | 36° |
| 2026-04-15 10:20 | 62.96773 | 156.53622 | 39051 ft | 452 kts | 36° |
| 2026-04-15 10:21 | 63.01872 | 156.61739 | 39068 ft | 453 kts | 36° |
| 2026-04-15 10:21 | 63.06981 | 156.69909 | 39064 ft | 452 kts | 37° |
| 2026-04-15 10:22 | 63.12065 | 156.78105 | 39072 ft | 452 kts | 37° |
| 2026-04-15 10:22 | 63.17146 | 156.86316 | 39075 ft | 452 kts | 37° |
| 2026-04-15 10:23 | 63.22186 | 156.94502 | 39078 ft | 452 kts | 37° |
| 2026-04-15 10:23 | 63.27259 | 157.02772 | 39079 ft | 452 kts | 37° |
| 2026-04-15 10:24 | 63.32329 | 157.11058 | 39082 ft | 452 kts | 37° |
| 2026-04-15 10:24 | 63.37394 | 157.19360 | 39100 ft | 452 kts | 37° |
| 2026-04-15 10:25 | 63.42444 | 157.27715 | 39101 ft | 452 kts | 37° |
| 2026-04-15 10:25 | 63.47494 | 157.36096 | 39092 ft | 452 kts | 37° |
| 2026-04-15 10:26 | 63.52539 | 157.44489 | 39102 ft | 452 kts | 37° |
| 2026-04-15 10:26 | 63.57581 | 157.52916 | 39102 ft | 452 kts | 37° |
| 2026-04-15 10:27 | 63.62617 | 157.61363 | 39100 ft | 452 kts | 37° |
| 2026-04-15 10:27 | 63.67650 | 157.69852 | 39101 ft | 452 kts | 38° |
| 2026-04-15 10:28 | 63.72640 | 157.78321 | 39115 ft | 452 kts | 38° |
| 2026-04-15 10:28 | 63.77691 | 157.86932 | 39112 ft | 452 kts | 38° |
| 2026-04-15 10:29 | 63.82676 | 157.95470 | 39104 ft | 452 kts | 38° |
| 2026-04-15 10:29 | 63.87692 | 158.04088 | 39118 ft | 453 kts | 38° |
| 2026-04-15 10:30 | 63.92707 | 158.12750 | 39119 ft | 453 kts | 38° |
| 2026-04-15 10:30 | 63.97720 | 158.21417 | 39135 ft | 453 kts | 38° |
| 2026-04-15 10:31 | 64.02731 | 158.30137 | 39131 ft | 453 kts | 38° |
| 2026-04-15 10:31 | 64.07720 | 158.38875 | 39130 ft | 452 kts | 38° |
| 2026-04-15 10:32 | 64.12705 | 158.47644 | 39139 ft | 452 kts | 39° |
| 2026-04-15 10:32 | 64.17678 | 158.56466 | 39134 ft | 452 kts | 39° |
| 2026-04-15 10:33 | 64.22648 | 158.65291 | 39142 ft | 452 kts | 39° |
| 2026-04-15 10:33 | 64.27628 | 158.74143 | 39141 ft | 451 kts | 39° |
| 2026-04-15 10:34 | 64.32559 | 158.82964 | 39139 ft | 451 kts | 39° |
| 2026-04-15 10:34 | 64.37511 | 158.91886 | 39143 ft | 451 kts | 39° |
| 2026-04-15 10:35 | 64.42453 | 159.00831 | 39143 ft | 451 kts | 39° |
| 2026-04-15 10:35 | 64.47400 | 159.09815 | 39145 ft | 451 kts | 39° |
| 2026-04-15 10:36 | 64.52332 | 159.18808 | 39151 ft | 450 kts | 39° |
| 2026-04-15 10:36 | 64.57246 | 159.27825 | 39145 ft | 450 kts | 39° |
| 2026-04-15 10:37 | 64.62122 | 159.36812 | 39161 ft | 449 kts | 39° |
| 2026-04-15 10:37 | 64.67014 | 159.45884 | 39160 ft | 449 kts | 39° |
| 2026-04-15 10:38 | 64.71899 | 159.54980 | 39172 ft | 449 kts | 39° |
| 2026-04-15 10:38 | 64.76777 | 159.64100 | 39170 ft | 449 kts | 39° |
| 2026-04-15 10:39 | 64.81657 | 159.73258 | 39169 ft | 449 kts | 40° |
| 2026-04-15 10:39 | 64.86526 | 159.82448 | 39186 ft | 449 kts | 40° |
| 2026-04-15 10:40 | 64.91389 | 159.91665 | 39174 ft | 449 kts | 40° |
| 2026-04-15 10:40 | 64.96255 | 160.00924 | 39184 ft | 449 kts | 40° |
| 2026-04-15 10:41 | 65.01110 | 160.10234 | 39184 ft | 449 kts | 40° |
| 2026-04-15 10:41 | 65.05962 | 160.19570 | 39187 ft | 450 kts | 40° |
| 2026-04-15 10:42 | 65.10785 | 160.28878 | 39184 ft | 450 kts | 40° |
| 2026-04-15 10:42 | 65.15625 | 160.38301 | 39189 ft | 450 kts | 40° |
| 2026-04-15 10:43 | 65.20468 | 160.47771 | 39187 ft | 450 kts | 40° |
| 2026-04-15 10:43 | 65.25309 | 160.57240 | 39195 ft | 450 kts | 39° |
| 2026-04-15 10:44 | 65.30235 | 160.66493 | 39184 ft | 450 kts | 38° |
| 2026-04-15 10:44 | 65.35196 | 160.75666 | 39176 ft | 451 kts | 38° |
| 2026-04-15 10:45 | 65.40142 | 160.84934 | 39181 ft | 451 kts | 39° |
| 2026-04-15 10:45 | 65.45062 | 160.94287 | 39183 ft | 450 kts | 39° |
| 2026-04-15 10:46 | 65.49969 | 161.03661 | 39184 ft | 450 kts | 39° |
| 2026-04-15 10:46 | 65.54851 | 161.12992 | 39183 ft | 450 kts | 39° |
| 2026-04-15 10:47 | 65.59755 | 161.22416 | 39194 ft | 450 kts | 39° |
| 2026-04-15 10:47 | 65.64644 | 161.31884 | 39187 ft | 450 kts | 39° |
| 2026-04-15 10:48 | 65.69537 | 161.41398 | 39197 ft | 450 kts | 39° |
| 2026-04-15 10:48 | 65.74409 | 161.50936 | 39197 ft | 450 kts | 39° |
| 2026-04-15 10:49 | 65.79276 | 161.60498 | 39180 ft | 450 kts | 39° |
| 2026-04-15 10:49 | 65.83322 | 161.68469 | 39200 ft | 449 kts | 40° |
| 2026-04-15 10:50 | 65.88970 | 161.79668 | 39205 ft | 449 kts | 40° |
| 2026-04-15 10:50 | 65.93032 | 161.87763 | 39204 ft | 450 kts | 40° |
| 2026-04-15 10:51 | 65.97882 | 161.97448 | 39204 ft | 450 kts | 40° |
| 2026-04-15 10:51 | 66.02690 | 162.07132 | 39205 ft | 450 kts | 40° |
| 2026-04-15 10:52 | 66.07530 | 162.16946 | 39208 ft | 450 kts | 40° |
| 2026-04-15 10:52 | 66.12377 | 162.26780 | 39210 ft | 450 kts | 40° |
| 2026-04-15 10:53 | 66.17208 | 162.36641 | 39209 ft | 450 kts | 40° |
| 2026-04-15 10:53 | 66.22028 | 162.46545 | 39204 ft | 451 kts | 40° |
| 2026-04-15 10:54 | 66.26853 | 162.56499 | 39195 ft | 451 kts | 40° |
| 2026-04-15 10:54 | 66.31645 | 162.66453 | 39198 ft | 451 kts | 40° |
| 2026-04-15 10:55 | 66.36463 | 162.76489 | 39196 ft | 452 kts | 40° |
| 2026-04-15 10:55 | 66.41281 | 162.86576 | 39199 ft | 452 kts | 40° |
| 2026-04-15 10:56 | 66.46081 | 162.96711 | 39204 ft | 452 kts | 41° |
| 2026-04-15 10:56 | 66.50883 | 163.06887 | 39209 ft | 452 kts | 41° |
| 2026-04-15 10:57 | 66.55691 | 163.17097 | 39210 ft | 452 kts | 41° |
| 2026-04-15 10:57 | 66.62847 | 163.32432 | 39217 ft | 452 kts | 41° |
| 2026-04-15 10:58 | 66.67634 | 163.42762 | 39213 ft | 453 kts | 41° |
| 2026-04-15 10:58 | 66.72410 | 163.53121 | 39234 ft | 452 kts | 41° |
| 2026-04-15 10:59 | 66.77161 | 163.63505 | 39235 ft | 451 kts | 41° |
| 2026-04-15 10:59 | 66.81905 | 163.73897 | 39246 ft | 451 kts | 41° |
| 2026-04-15 11:00 | 66.86647 | 163.84327 | 39251 ft | 451 kts | 41° |
| 2026-04-15 11:00 | 66.91379 | 163.94797 | 39255 ft | 450 kts | 41° |
| 2026-04-15 11:01 | 66.96095 | 164.05315 | 39275 ft | 450 kts | 42° |
| 2026-04-15 11:01 | 67.00787 | 164.15831 | 39267 ft | 449 kts | 41° |
| 2026-04-15 11:02 | 67.05478 | 164.26385 | 39269 ft | 448 kts | 42° |
| 2026-04-15 11:02 | 67.10163 | 164.36983 | 39273 ft | 450 kts | 42° |
| 2026-04-15 11:03 | 67.14845 | 164.47637 | 39269 ft | 450 kts | 42° |
| 2026-04-15 11:03 | 67.19535 | 164.58366 | 39279 ft | 451 kts | 42° |
| 2026-04-15 11:04 | 67.24221 | 164.69153 | 39281 ft | 452 kts | 42° |
| 2026-04-15 11:04 | 67.28909 | 164.79990 | 39284 ft | 452 kts | 42° |
| 2026-04-15 11:05 | 67.33575 | 164.90838 | 39298 ft | 453 kts | 42° |
| 2026-04-15 11:05 | 67.38252 | 165.01793 | 39304 ft | 453 kts | 42° |
| 2026-04-15 11:06 | 67.42924 | 165.12785 | 39303 ft | 453 kts | 42° |
| 2026-04-15 11:06 | 67.47594 | 165.23807 | 39319 ft | 453 kts | 42° |
| 2026-04-15 11:07 | 67.52257 | 165.34885 | 39318 ft | 453 kts | 43° |
| 2026-04-15 11:07 | 67.56905 | 165.45998 | 39320 ft | 453 kts | 43° |
| 2026-04-15 11:08 | 67.61542 | 165.57150 | 39323 ft | 453 kts | 43° |
| 2026-04-15 11:08 | 67.66182 | 165.68373 | 39325 ft | 452 kts | 43° |
| 2026-04-15 11:09 | 67.70810 | 165.79603 | 39331 ft | 452 kts | 43° |
| 2026-04-15 11:09 | 67.75423 | 165.90876 | 39333 ft | 452 kts | 43° |
| 2026-04-15 11:10 | 67.80032 | 166.02199 | 39337 ft | 452 kts | 43° |
| 2026-04-15 11:10 | 67.84606 | 166.13462 | 39334 ft | 452 kts | 40° |
| 2026-04-15 11:11 | 67.89571 | 166.23642 | 39334 ft | 452 kts | 38° |
| 2026-04-15 11:11 | 67.94558 | 166.33784 | 39341 ft | 452 kts | 38° |
| 2026-04-15 11:12 | 67.99548 | 166.43979 | 39341 ft | 452 kts | 38° |
| 2026-04-15 11:12 | 68.04528 | 166.54211 | 39341 ft | 452 kts | 38° |
| 2026-04-15 11:13 | 68.09511 | 166.64514 | 39369 ft | 452 kts | 38° |
| 2026-04-15 11:13 | 68.14479 | 166.74860 | 39368 ft | 452 kts | 38° |
| 2026-04-15 11:14 | 68.19407 | 166.85180 | 39365 ft | 452 kts | 38° |
| 2026-04-15 11:14 | 68.24369 | 166.95616 | 39383 ft | 452 kts | 38° |
| 2026-04-15 11:15 | 68.29329 | 167.06089 | 39384 ft | 452 kts | 38° |
| 2026-04-15 11:15 | 68.34266 | 167.16600 | 39383 ft | 452 kts | 38° |
| 2026-04-15 11:16 | 68.39206 | 167.27166 | 39392 ft | 452 kts | 39° |
| 2026-04-15 11:16 | 68.44133 | 167.37771 | 39392 ft | 452 kts | 39° |
| 2026-04-15 11:17 | 68.49027 | 167.48368 | 39307 ft | 453 kts | 39° |
| 2026-04-15 11:17 | 68.51486 | 167.53709 | 39100 ft | 452 kts | 39° |
| 2026-04-15 11:17 | 68.53947 | 167.59066 | 38844 ft | 451 kts | 39° |
| 2026-04-15 11:18 | 68.56397 | 167.64427 | 38577 ft | 450 kts | 39° |
| 2026-04-15 11:18 | 68.58834 | 167.69771 | 38312 ft | 449 kts | 39° |
| 2026-04-15 11:18 | 68.61281 | 167.75153 | 37677 ft | 451 kts | 39° |
| 2026-04-15 11:18 | 68.63729 | 167.80556 | 36905 ft | 453 kts | 40° |
| 2026-04-15 11:19 | 68.66186 | 167.85998 | 36095 ft | 455 kts | 40° |
| 2026-04-15 11:19 | 68.68660 | 167.91490 | 35313 ft | 457 kts | 40° |
| 2026-04-15 11:19 | 68.71120 | 167.96955 | 34735 ft | 453 kts | 41° |
| 2026-04-15 11:19 | 68.73563 | 168.02402 | 33948 ft | 452 kts | 41° |
| 2026-04-15 11:20 | 68.75992 | 168.07836 | 33263 ft | 447 kts | 42° |
| 2026-04-15 11:20 | 68.78398 | 168.13231 | 32494 ft | 444 kts | 42° |
| 2026-04-15 11:20 | 68.80774 | 168.18572 | 31939 ft | 436 kts | 43° |
| 2026-04-15 11:20 | 68.83115 | 168.23844 | 31228 ft | 433 kts | 43° |
| 2026-04-15 11:21 | 68.85429 | 168.29066 | 30735 ft | 425 kts | 44° |
| 2026-04-15 11:21 | 68.87681 | 168.34162 | 30036 ft | 420 kts | 44° |
| 2026-04-15 11:21 | 68.89921 | 168.39248 | 29454 ft | 412 kts | 44° |
| 2026-04-15 11:21 | 68.92141 | 168.44311 | 28922 ft | 404 kts | 44° |
| 2026-04-15 11:22 | 68.94267 | 168.49181 | 28414 ft | 397 kts | 44° |
| 2026-04-15 11:22 | 68.96381 | 168.54035 | 27898 ft | 390 kts | 45° |
| 2026-04-15 11:22 | 68.98456 | 168.58804 | 27404 ft | 383 kts | 45° |
| 2026-04-15 11:22 | 69.00496 | 168.63500 | 26928 ft | 377 kts | 45° |
| 2026-04-15 11:23 | 69.02499 | 168.68133 | 26464 ft | 371 kts | 45° |
| 2026-04-15 11:23 | 69.04474 | 168.72704 | 26000 ft | 366 kts | 45° |
| 2026-04-15 11:23 | 69.06418 | 168.77212 | 25571 ft | 361 kts | 45° |
| 2026-04-15 11:23 | 69.08337 | 168.81681 | 25143 ft | 357 kts | 45° |
| 2026-04-15 11:24 | 69.10234 | 168.86116 | 24721 ft | 353 kts | 45° |
| 2026-04-15 11:24 | 69.12109 | 168.90513 | 24300 ft | 350 kts | 45° |
| 2026-04-15 11:24 | 69.13966 | 168.94873 | 23859 ft | 347 kts | 45° |
| 2026-04-15 11:24 | 69.15802 | 168.99191 | 23412 ft | 342 kts | 45° |
| 2026-04-15 11:25 | 69.17615 | 169.03460 | 22999 ft | 336 kts | 45° |
| 2026-04-15 11:25 | 69.19393 | 169.07657 | 22574 ft | 330 kts | 45° |
| 2026-04-15 11:25 | 69.21144 | 169.11771 | 22133 ft | 327 kts | 44° |
| 2026-04-15 11:25 | 69.22924 | 169.15715 | 21698 ft | 324 kts | 42° |
| 2026-04-15 11:26 | 69.24720 | 169.19534 | 21250 ft | 322 kts | 41° |
| 2026-04-15 11:26 | 69.26507 | 169.23282 | 20807 ft | 319 kts | 41° |
| 2026-04-15 11:26 | 69.28285 | 169.27017 | 20359 ft | 317 kts | 40° |
| 2026-04-15 11:26 | 69.30049 | 169.30757 | 19911 ft | 316 kts | 40° |
| 2026-04-15 11:27 | 69.31797 | 169.34495 | 19457 ft | 315 kts | 40° |
| 2026-04-15 11:27 | 69.33539 | 169.38248 | 19011 ft | 314 kts | 40° |
| 2026-04-15 11:27 | 69.35253 | 169.41960 | 18556 ft | 314 kts | 40° |
| 2026-04-15 11:27 | 69.36984 | 169.45722 | 18080 ft | 312 kts | 40° |
| 2026-04-15 11:28 | 69.38708 | 169.49476 | 17636 ft | 310 kts | 40° |
| 2026-04-15 11:28 | 69.40407 | 169.53185 | 17203 ft | 308 kts | 40° |
| 2026-04-15 11:28 | 69.42106 | 169.56896 | 16777 ft | 307 kts | 40° |
| 2026-04-15 11:28 | 69.43792 | 169.60586 | 16353 ft | 305 kts | 40° |
| 2026-04-15 11:29 | 69.45469 | 169.64271 | 15932 ft | 304 kts | 40° |
| 2026-04-15 11:29 | 69.47143 | 169.67955 | 15511 ft | 303 kts | 40° |
| 2026-04-15 11:29 | 69.48810 | 169.71629 | 15094 ft | 302 kts | 40° |
| 2026-04-15 11:29 | 69.50471 | 169.75292 | 14679 ft | 302 kts | 40° |
| 2026-04-15 11:30 | 69.52133 | 169.78969 | 14257 ft | 301 kts | 39° |
| 2026-04-15 11:30 | 69.53787 | 169.82631 | 13803 ft | 300 kts | 40° |
| 2026-04-15 11:30 | 69.55430 | 169.86283 | 13379 ft | 298 kts | 40° |
| 2026-04-15 11:30 | 69.57063 | 169.89927 | 12930 ft | 297 kts | 40° |
| 2026-04-15 11:31 | 69.58661 | 169.93493 | 12541 ft | 294 kts | 40° |
| 2026-04-15 11:31 | 69.60269 | 169.97081 | 12126 ft | 292 kts | 40° |
| 2026-04-15 11:31 | 69.61974 | 170.00221 | 11708 ft | 292 kts | 29° |
| 2026-04-15 11:31 | 69.63895 | 170.02188 | 11282 ft | 295 kts | 16° |
| 2026-04-15 11:32 | 69.65924 | 170.03124 | 10848 ft | 295 kts | 12° |
| 2026-04-15 11:32 | 69.67940 | 170.03973 | 10602 ft | 288 kts | 12° |
| 2026-04-15 11:32 | 69.69886 | 170.04797 | 10402 ft | 279 kts | 12° |
| 2026-04-15 11:32 | 69.71790 | 170.05606 | 10234 ft | 275 kts | 12° |
| 2026-04-15 11:33 | 69.73678 | 170.06417 | 9827 ft | 273 kts | 12° |
| 2026-04-15 11:33 | 69.75552 | 170.07232 | 9406 ft | 272 kts | 12° |
| 2026-04-15 11:33 | 69.77402 | 170.08033 | 9189 ft | 263 kts | 12° |
| 2026-04-15 11:33 | 69.79174 | 170.08793 | 8985 ft | 254 kts | 12° |
| 2026-04-15 11:34 | 69.80917 | 170.09548 | 8641 ft | 252 kts | 12° |
| 2026-04-15 11:34 | 69.82639 | 170.10304 | 8280 ft | 249 kts | 12° |
| 2026-04-15 11:34 | 69.84349 | 170.11058 | 7931 ft | 247 kts | 12° |
| 2026-04-15 11:34 | 69.86016 | 170.11786 | 7578 ft | 243 kts | 12° |
| 2026-04-15 11:35 | 69.87671 | 170.12509 | 7252 ft | 236 kts | 12° |
| 2026-04-15 11:35 | 69.89279 | 170.13211 | 6874 ft | 231 kts | 12° |
| 2026-04-15 11:35 | 69.90860 | 170.13904 | 6391 ft | 229 kts | 12° |
| 2026-04-15 11:35 | 69.92435 | 170.14595 | 5875 ft | 228 kts | 11° |
| 2026-04-15 11:36 | 69.93992 | 170.15349 | 5329 ft | 225 kts | 19° |
| 2026-04-15 11:36 | 69.94900 | 170.16622 | 5107 ft | 213 kts | 41° |
| 2026-04-15 11:36 | 69.95787 | 170.19764 | 4921 ft | 194 kts | 69° |
| 2026-04-15 11:36 | 69.96005 | 170.24603 | 4650 ft | 179 kts | 101° |
| 2026-04-15 11:37 | 69.95565 | 170.27940 | 4317 ft | 176 kts | 115° |
| 2026-04-15 11:37 | 69.95033 | 170.31045 | 4168 ft | 163 kts | 115° |
| 2026-04-15 11:37 | 69.94531 | 170.33977 | 3797 ft | 163 kts | 115° |
| 2026-04-15 11:37 | 69.94189 | 170.35974 | 3545 ft | 162 kts | 115° |
| 2026-04-15 11:38 | 69.93695 | 170.38874 | 3290 ft | 158 kts | 115° |
| 2026-04-15 11:38 | 69.93207 | 170.41735 | 3048 ft | 158 kts | 115° |
| 2026-04-15 11:38 | 69.92726 | 170.44556 | 2793 ft | 157 kts | 115° |
| 2026-04-15 11:38 | 69.92240 | 170.47397 | 2547 ft | 156 kts | 116° |
| 2026-04-15 11:39 | 69.91560 | 170.49852 | 2304 ft | 157 kts | 138° |
| 2026-04-15 11:39 | 69.90610 | 170.51401 | 2096 ft | 157 kts | 159° |
| 2026-04-15 11:39 | 69.89574 | 170.52127 | 1907 ft | 149 kts | 165° |
| 2026-04-15 11:39 | 69.88590 | 170.52785 | 1727 ft | 141 kts | 165° |
| 2026-04-15 11:40 | 69.87681 | 170.53394 | 1569 ft | 129 kts | 165° |
| 2026-04-15 11:40 | 69.86820 | 170.53977 | 1413 ft | 126 kts | 165° |
| 2026-04-15 11:40 | 69.85973 | 170.54546 | 1234 ft | 124 kts | 166° |
| 2026-04-15 11:40 | 69.85129 | 170.55113 | 1085 ft | 123 kts | 166° |
| 2026-04-15 11:41 | 69.84295 | 170.55675 | 910 ft | 122 kts | 166° |
| 2026-04-15 11:41 | 69.83457 | 170.56236 | 787 ft | 124 kts | 166° |
| 2026-04-15 11:41 | 69.82625 | 170.56786 | 682 ft | 124 kts | 167° |
| 2026-04-15 11:41 | 69.81771 | 170.57343 | 516 ft | 126 kts | 166° |
| 2026-04-15 11:42 | 69.80920 | 170.57932 | 371 ft | 125 kts | 166° |
| 2026-04-15 11:42 | 69.80063 | 170.58500 | 207 ft | 127 kts | 166° |
| 2026-04-15 11:42 | 69.79213 | 170.59067 | 45 ft | 123 kts | 166° |
| 2026-04-15 11:42 | 69.78489 | 170.59556 | 28 ft | 88 kts | 166° |
| 2026-04-15 11:43 | 69.78062 | 170.59852 | 32 ft | 38 kts | 166° |
| 2026-04-15 11:43 | 69.77849 | 170.60001 | 31 ft | 32 kts | 166° |
| 2026-04-15 11:43 | 69.77670 | 170.60141 | 32 ft | 14 kts | 155° |
| 2026-04-15 11:43 | 69.77651 | 170.60124 | 30 ft | 7 kts | 325° |
| 2026-04-15 11:44 | 69.77720 | 170.60077 | 31 ft | 13 kts | 345° |
| 2026-04-15 11:44 | 69.77824 | 170.60007 | 30 ft | 17 kts | 347° |
| 2026-04-15 11:44 | 69.77956 | 170.59918 | 32 ft | 22 kts | 346° |
| 2026-04-15 11:44 | 69.78121 | 170.59805 | 33 ft | 26 kts | 347° |
| 2026-04-15 11:45 | 69.78312 | 170.59676 | 32 ft | 31 kts | 347° |
| 2026-04-15 11:45 | 69.78541 | 170.59521 | 29 ft | 36 kts | 347° |
| 2026-04-15 11:45 | 69.78759 | 170.59377 | 33 ft | 17 kts | 347° |
| 2026-04-15 11:45 | 69.78808 | 170.59448 | 33 ft | 10 kts | 71° |
| 2026-04-15 11:46 | 69.78828 | 170.59699 | 34 ft | 15 kts | 76° |
| 2026-04-15 11:46 | 69.78844 | 170.59883 | 31 ft | 0 kts | 75° |
| 2026-04-15 11:47 | 69.78844 | 170.59888 | 31 ft | 1 kts | 75° |
| 2026-04-15 11:47 | 69.78847 | 170.59925 | 31 ft | 3 kts | 77° |
| 2026-04-15 11:48 | 69.78836 | 170.59996 | 32 ft | 5 kts | 121° |
| 2026-04-15 11:48 | 69.78804 | 170.60063 | 32 ft | 6 kts | 127° |
| 2026-04-15 11:48 | 69.78774 | 170.60166 | 32 ft | 7 kts | 140° |
| 2026-04-15 11:48 | 69.78732 | 170.60222 | 33 ft | 7 kts | 166° |
| 2026-04-15 11:49 | 69.78692 | 170.60212 | 34 ft | 2 kts | 171° |
| 2026-04-15 11:49 | 69.78691 | 170.60226 | 33 ft | 1 kts | 120° |
| 2026-04-15 11:49 | 69.78692 | 170.60240 | 34 ft | 1 kts | 88° |
| 2026-04-15 11:49 | 69.78696 | 170.60255 | 33 ft | 0 kts | 51° |
| 2026-04-15 11:50 | 69.78704 | 170.60261 | 33 ft | 1 kts | 11° |
| 2026-04-15 11:50 | 69.78709 | 170.60248 | 33 ft | 1 kts | 324° |
| 2026-04-15 11:50 | 69.78713 | 170.60226 | 32 ft | 2 kts | 302° |
| 2026-04-15 11:50 | 69.78719 | 170.60189 | 33 ft | 2 kts | 297° |
| 2026-04-15 11:51 | 69.78725 | 170.60154 | 34 ft | 1 kts | 294° |